Latest Coastal Weather Observations for Robe Airport

IDV60701

Issued at 7:02 am EDT Thursday 11 February 2016 (issued every 10 minutes, with the page automatically refreshed every 10 minutes)

About coastal observations | Map of coastal stations | Coastal observations for VIC | Marine services | Other Formats
Station Details ID: 026105 Name: ROBE AIRFIELD Lat: -37.18 Lon: 139.81 Height: 3.0 m
Data from the previous 72 hours. | See also: Recent months at Robe Airport
Date/Time
EDT
Temp

°C
Wind Pressure Rain
since 9am
mm
Weather Cloud Vis
km
Sea
Height
m
Swell
Dir
 
Speed
knots
Gust
knots
hPa Trend Height
m
Period
s
Dir
11/07:00am 10.9 S 2 3 1017.3 - 0.0 - - - - - - -
11/06:30am 11.8 S 5 6 1016.8 - 0.0 - - - - - - -
11/06:00am 11.6 SSE 4 5 1016.7 - 0.0 - - - - - - -
11/05:30am 11.7 S 4 5 1016.4 - 0.0 - - - - - - -
11/05:00am 11.9 SSE 5 6 1016.2 - 0.0 - - - - - - -
11/04:30am 13.4 SSE 5 7 1016.1 - 0.0 - - - - - - -
11/04:00am 12.4 SSE 4 5 1016.1 - 0.0 - - - - - - -
11/03:30am 12.8 S 5 7 1016.2 - 0.0 - - - - - - -
11/03:00am 13.4 SSE 5 7 1016.3 - 0.0 - - - - - - -
11/02:30am 13.4 SSE 5 6 1016.4 - 0.0 - - - - - - -
11/02:00am 14.1 SSE 5 6 1016.5 - 0.0 - - - - - - -
11/01:30am 14.8 SSE 6 9 1016.8 - 0.0 - - - - - - -
11/01:00am 15.0 SSE 8 11 1017.0 - 0.0 - - - - - - -
11/12:30am 15.4 SSE 8 11 1016.8 - 0.0 - - - - - - -
11/12:00am 15.5 SSE 9 12 1016.9 - 0.0 - - - - - - -
 
Date/Time
EDT
Temp

°C
Wind Pressure Rain
since 9am
mm
Weather Cloud Vis
km
Sea
Height
m
Swell
Dir
 
Speed
knots
Gust
knots
hPa Trend Height
m
Period
s
Dir
10/11:30pm 15.2 SSE 8 14 1017.0 - 0.0 - - - - - - -
10/11:00pm 15.2 S 8 10 1017.1 - 0.0 - - - - - - -
10/10:30pm 15.5 S 8 10 1017.0 - 0.0 - - - - - - -
10/10:00pm 15.7 SSE 8 10 1016.8 - 0.0 - - - - - - -
10/09:30pm 16.3 SSE 8 10 1016.7 - 0.0 - - - - - - -
10/09:00pm 16.8 SSE 9 13 1016.7 - 0.0 - - - - - - -
10/08:30pm 17.7 S 11 15 1016.5 - 0.0 - - - - - - -
10/08:00pm 18.6 S 12 17 1016.3 - 0.0 - - - - - - -
10/07:30pm 19.1 S 16 21 1016.0 - 0.0 - - - - - - -
10/07:00pm 20.1 S 15 20 1015.8 - 0.0 - - - - - - -
10/06:30pm 20.2 S 16 20 1015.7 - 0.0 - - - - - - -
10/06:00pm 21.0 S 16 21 1015.5 - 0.0 - - - - - - -
10/05:30pm 21.4 S 15 20 1015.4 - 0.0 - - - - - - -
10/05:00pm 21.6 S 15 22 1015.4 - 0.0 - - - - - - -
10/04:30pm 21.6 S 17 22 1015.5 - 0.0 - - - - - - -
10/04:00pm 21.7 S 17 21 1015.5 - 0.0 - - - - - - -
10/03:30pm 21.8 S 17 22 1015.6 - 0.0 - - - - - - -
10/03:00pm 22.1 S 15 20 1015.9 - 0.0 - - - - - - -
10/02:30pm 21.8 S 16 21 1016.0 - 0.0 - - - - - - -
10/02:00pm 21.9 S 15 19 1016.0 - 0.0 - - - - - - -
10/01:30pm 21.7 S 14 18 1016.2 - 0.0 - - - - - - -
10/01:00pm 21.8 SSE 12 19 1016.3 - 0.0 - - - - - - -
10/12:30pm 22.4 SSE 11 15 1016.6 - 0.0 - - - - - - -
10/12:00pm 21.4 SSE 11 15 1017.0 - 0.0 - - - - - - -
10/11:30am 20.8 SSE 10 15 1017.2 - 0.0 - - - - - - -
10/11:00am 20.1 SSE 10 15 1017.4 - 0.0 - - - - - - -
10/10:30am 19.8 SSE 12 17 1017.4 - 0.0 - - - - - - -
10/10:00am 18.5 SSE 11 16 1017.6 - 0.0 - - - - - - -
10/09:30am 17.0 SSE 7 10 1017.4 - 0.0 - - - - - - -
10/09:00am 16.7 SE 6 9 1017.4 - 0.0 - - - - - - -
10/08:30am 14.8 SE 5 8 1017.1 - 0.0 - - - - - - -
10/08:00am 12.1 S 5 7 1016.8 - 0.0 - - - - - - -
10/07:30am 10.3 SSE 3 4 1016.5 - 0.0 - - - - - - -
10/07:00am 11.1 SSE 3 5 1016.1 - 0.0 - - - - - - -
10/06:30am 10.8 SSE 4 6 1016.0 - 0.0 - - - - - - -
10/06:00am 11.8 SSE 4 6 1015.8 - 0.0 - - - - - - -
10/05:30am 12.3 SSE 7 9 1015.8 - 0.0 - - - - - - -
10/05:00am 12.4 SSE 7 9 1015.7 - 0.0 - - - - - - -
10/04:30am 12.0 SSE 6 7 1015.6 - 0.0 - - - - - - -
10/04:00am 13.1 SSE 6 8 1015.5 - 0.0 - - - - - - -
10/03:30am 13.3 SSE 6 8 1015.9 - 0.0 - - - - - - -
10/03:00am 13.6 SE 6 9 1016.1 - 0.0 - - - - - - -
10/02:30am 13.4 SSE 5 8 1016.5 - 0.0 - - - - - - -
10/02:00am 14.1 SSE 9 12 1017.0 - 0.0 - - - - - - -
10/01:30am 13.7 S 8 11 1017.2 - 0.0 - - - - - - -
10/01:00am 13.6 SSE 7 9 1017.3 - 0.0 - - - - - - -
10/12:30am 14.1 SSE 7 9 1017.3 - 0.0 - - - - - - -
10/12:00am 14.9 SE 6 9 1017.5 - 0.0 - - - - - - -
 
Date/Time
EDT
Temp

°C
Wind Pressure Rain
since 9am
mm
Weather Cloud Vis
km
Sea
Height
m
Swell
Dir
 
Speed
knots
Gust
knots
hPa Trend Height
m
Period
s
Dir
09/11:30pm 15.6 SSE 9 12 1017.6 - 0.0 - - - - - - -
09/11:00pm 15.5 SSE 8 11 1017.7 - 0.0 - - - - - - -
09/10:30pm 15.7 SSE 11 15 1018.0 - 0.0 - - - - - - -
09/10:00pm 16.1 SSE 11 14 1017.7 - 0.0 - - - - - - -
09/09:30pm 16.1 SSE 12 16 1017.6 - 0.0 - - - - - - -
09/09:00pm 16.4 S 13 16 1017.7 - 0.0 - - - - - - -
09/08:30pm 17.3 S 14 18 1017.6 - 0.0 - - - - - - -
09/08:00pm 18.4 SSE 14 19 1017.7 - 0.0 - - - - - - -
09/07:30pm 19.2 S 16 21 1017.9 - 0.0 - - - - - - -
09/07:00pm 19.8 S 16 21 1018.0 - 0.0 - - - - - - -
09/06:30pm 20.8 S 16 20 1017.8 - 0.0 - - - - - - -
09/06:00pm 22.9 SSE 12 16 1017.7 - 0.0 - - - - - - -
09/05:30pm 23.5 S 12 16 1018.0 - 0.0 - - - - - - -
09/05:00pm 23.1 S 14 19 1018.2 - 0.0 - - - - - - -
09/04:30pm 22.9 S 15 18 1018.6 - 0.0 - - - - - - -
09/04:00pm 23.1 S 15 20 1018.9 - 0.0 - - - - - - -
09/03:30pm 23.0 S 15 19 1019.0 - 0.0 - - - - - - -
09/03:00pm 23.7 S 14 19 1019.3 - 0.0 - - - - - - -
09/02:30pm 23.5 S 15 20 1019.5 - 0.0 - - - - - - -
09/02:00pm 23.6 S 16 21 1019.6 - 0.0 - - - - - - -
09/01:30pm 23.2 S 13 19 1019.8 - 0.0 - - - - - - -
09/01:00pm 23.4 S 12 16 1020.1 - 0.0 - - - - - - -
09/12:30pm 24.0 S 12 16 1020.4 - 0.0 - - - - - - -
09/12:00pm 23.6 SSE 8 12 1020.6 - 0.0 - - - - - - -
09/11:30am 23.0 SSE 7 10 1021.0 - 0.0 - - - - - - -
09/11:00am 21.5 SE 8 11 1021.1 - 0.0 - - - - - - -
09/10:30am 21.1 SE 8 13 1021.5 - 0.0 - - - - - - -
09/10:00am 19.6 SE 9 13 1021.5 - 0.0 - - - - - - -
09/09:30am 18.5 SE 12 17 1021.7 - 0.0 - - - - - - -
09/09:00am 17.1 SE 9 12 1021.8 - 0.0 - - - - - - -
09/08:30am 15.8 SE 7 10 1021.6 - 0.0 - - - - - - -
09/08:00am 14.1 SSE 5 8 1021.9 - 0.0 - - - - - - -
09/07:30am 12.9 SSE 4 6 1021.9 - 0.0 - - - - - - -
09/07:00am 12.6 SSE 4 5 1021.7 - 0.0 - - - - - - -
09/06:30am 12.7 SE 5 7 1021.5 - 0.0 - - - - - - -
09/06:00am 13.2 SSE 6 8 1021.3 - 0.0 - - - - - - -
09/05:30am 13.3 SE 6 9 1021.3 - 0.0 - - - - - - -
09/05:00am 13.7 SE 6 8 1021.3 - 0.0 - - - - - - -
09/04:30am 13.8 SE 6 9 1021.3 - 0.0 - - - - - - -
09/04:00am 14.2 SSE 8 11 1021.5 - 0.0 - - - - - - -
09/03:30am 14.6 SE 8 11 1021.8 - 0.0 - - - - - - -
09/03:00am 14.5 SE 8 10 1021.9 - 0.0 - - - - - - -
09/02:30am 13.7 SSE 5 7 1022.2 - 0.0 - - - - - - -
09/02:00am 15.0 SSE 8 12 1022.4 - 0.0 - - - - - - -
09/01:30am 15.1 SE 7 10 1022.7 - 0.0 - - - - - - -
09/01:00am 15.6 SE 8 11 1022.9 - 0.0 - - - - - - -
09/12:30am 15.8 SE 7 11 1023.0 - 0.0 - - - - - - -
09/12:00am 16.0 SE 7 12 1023.2 - 0.0 - - - - - - -
 
Date/Time
EDT
Temp

°C
Wind Pressure Rain
since 9am
mm
Weather Cloud Vis
km
Sea
Height
m
Swell
Dir
 
Speed
knots
Gust
knots
hPa Trend Height
m
Period
s
Dir
08/11:30pm 16.5 SSE 11 16 1023.4 - 0.0 - - - - - - -
08/11:00pm 16.8 SSE 13 19 1023.4 - 0.0 - - - - - - -
08/10:30pm 16.6 SSE 10 16 1023.3 - 0.0 - - - - - - -
08/10:00pm 16.8 SSE 13 19 1023.1 - 0.0 - - - - - - -
08/09:30pm 16.9 SSE 13 19 1023.0 - 0.0 - - - - - - -
08/09:00pm 17.1 SSE 12 18 1022.8 - 0.0 - - - - - - -
08/08:30pm 17.6 SSE 15 21 1022.7 - 0.0 - - - - - - -
08/08:00pm 18.7 SSE 17 23 1022.4 - 0.0 - - - - - - -
08/07:30pm 19.5 SSE 17 23 1022.1 - 0.0 - - - - - - -
08/07:00pm 19.8 S 21 27 1022.0 - 0.0 - - - - - - -
08/06:30pm 20.5 S 21 27 1022.0 - 0.0 - - - - - - -
08/06:00pm 21.4 S 18 26 1022.2 - 0.0 - - - - - - -
08/05:54pm 21.6 SSE 18 29 1022.2 - 0.0 - - - - - - -
08/05:30pm 21.8 SSE 20 28 1022.1 - 0.0 - - - - - - -
08/05:00pm 21.9 S 19 25 1022.3 - 0.0 - - - - - - -
08/04:30pm 22.6 S 19 25 1022.5 - 0.0 - - - - - - -
08/04:00pm 22.2 S 20 25 1022.6 - 0.0 - - - - - - -
08/03:30pm 22.5 S 18 25 1022.8 - 0.0 - - - - - - -
08/03:00pm 22.9 S 18 24 1022.9 - 0.0 - - - - - - -
08/02:30pm 22.9 S 20 25 1022.8 - 0.0 - - - - - - -
08/02:00pm 22.5 S 18 26 1023.2 - 0.0 - - - - - - -
08/01:30pm 21.8 S 19 24 1023.4 - 0.0 - - - - - - -
08/01:00pm 21.8 S 19 26 1023.7 - 0.0 - - - - - - -
08/12:30pm 21.9 S 16 22 1023.7 - 0.0 - - - - - - -
08/12:00pm 22.1 S 16 24 1023.8 - 0.0 - - - - - - -
08/11:30am 20.9 SSE 16 21 1023.9 - 0.0 - - - - - - -
08/11:00am 20.3 SSE 13 19 1024.1 - 0.0 - - - - - - -
08/10:30am 19.6 SE 14 21 1024.2 - 0.0 - - - - - - -
08/10:00am 18.6 SE 14 21 1024.1 - 0.0 - - - - - - -
08/09:30am 18.1 SSE 13 21 1024.2 - 0.0 - - - - - - -
08/09:00am 17.2 SSE 12 19 1024.0 - 0.0 - - - - - - -
08/08:30am 16.7 SSE 10 15 1023.8 - 0.0 - - - - - - -
08/08:00am 16.3 SSE 10 14 1023.5 - 0.0 - - - - - - -

Other Formats:

Comma delimited format used in spreadsheet applications
http://www.bom.gov.au/fwo/IDV60701/IDV60701.95816.axf

JavaScript Object Notation format (JSON) in row-major order
http://www.bom.gov.au/fwo/IDV60701/IDV60701.95816.json